Lancaster, NH

9:02 PM EDT on August 20, 2014 (GMT -0400)
RAWS LANCASTER NH US | Change Station
CLOSE
Current Station
Personal Weather Station
Location: Lancaster, NH
Elevation: 897 ft
Nearby Weather Stations

Elev 897 ft 44.53 °N, 71.57 °W | Updated 52 minutes ago

Mostly Cloudy
Mostly Cloudy
64.0 °F
Feels Like 64.0 °F
N
1.0
Wind Variable Wind from SW
Gusts 2.0 mph

Today
High -- | Low -- °F
--% Chance of Precip.
Yesterday
High -- | Low -- °F
Precip. -- in
5:54 AM 7:43 PM
Waning Crescent, 18% visible
Pressure 30.07 in
Visibility 10.0 miles
Clouds Mostly Cloudy 4900 ft
Dew Point 60.0 °F
Humidity 87%
Rainfall 0.00 in
Snow Depth Not available.
UV 0 out of 12
Pollen 8.40 out of 12
Air Quality Not available.
Flu Activity Not available.
METAR KHIE 210052Z AUTO 00000KT 10SM BKN049 18/16 A3006 RMK AO2 SLP181 T01830156

More Conditions Fewer Conditions

Pressure 30.07 in
Visibility 10.0 miles
Clouds Mostly Cloudy 4900 ft
Dew Point 60.0 °F
Humidity 87%
Rainfall 0.00 in
Snow Depth Not available.
UV 0 out of 12
Pollen 8.40 out of 12
Air Quality Not available.
Flu Activity Not available.
METAR KHIE 210052Z AUTO 00000KT 10SM BKN049 18/16 A3006 RMK AO2 SLP181 T01830156

More Conditions Fewer Conditions

10-Day Weather Forecast

Almanac

Astronomy

Aug. 20, 2014 Rise Set
Actual Time 5:54 AM EDT 7:43 PM EDT
Civil Twilight 5:23 AM EDT 8:14 PM EDT
Nautical Twilight 4:45 AM EDT 8:52 PM EDT
Astronomical Twilight 4:04 AM EDT 9:33 PM EDT
Moon 1:27 AM EDT (8/20) 4:30 PM EDT (8/20)
Length of Visible Light 14h 50m
Length of Day
13h 48m
Tomorrow will be 2m 50s shorter.
Waning Crescent, 18% of the Moon is Illuminated
Today
Waning Crescent
Aug 25
New
Sep 2
First Quarter
Sep 8
Full
Sep 15
Last Quarter

Today's Extremes

State Highs State Lows

Community

WunderPhotos

Upload Photos

1,745,823 photos uploaded!

WunderBlogs® & News

Nearby

Air Quality

  Air Quality AQ Index Pollutant
Wednesday Good
PM2.5
Wednesday Good
OZONE
Thursday Good
PM2.5
Thursday Good
OZONE

Snow Depth

Station Depth Elevation
No new snow has been reported.

Earthquake Activity

City Distance Mag. Time & Date
No recent earthquake activity has been reported nearby.
Minimum magnitude displayed is 2.5.

Coastal Water Temperatures

Place Temperature
No Stations Reporting

Nearby Weather Stations